Canalechevarria — EA2510 — position and weather

sailwx.info

Track history (hours):
 
Tides and Currents Weather Stations Pressure Air Temp Water Temp Dewpoint Dewpoint Depression Visibility Wind Speed Wind Dir Waves Ship Positions

Canalechevarria

Last reported at 2017-Sep-21 06:20 UTC. Time now 2017-Sep-24 21:24 UTC.
Position N 45°52' W 004°06'.

Length 26 m.

Type: Fishing. MMSI: 224218930.

Date/timePositionNaut miles runAvg speedWind from/ knotsBaromVisibWave heightAir tempDewpointWater temp
2017-Sep-21 06:20N 45°52' W 004°06'2 5.6
2017-Sep-21 06:00N 45°50' W 004°05'3 5.3
2017-Sep-21 05:30N 45°48' W 004°06'1 0.6
2017-Sep-21 03:50N 45°46' W 004°06'0 0.6
2017-Sep-21 03:30N 45°46' W 004°06'0 0.6
2017-Sep-21 02:59N 45°46' W 004°06'0 0.4
2017-Sep-21 02:08N 45°46' W 004°06'0 0.4
2017-Sep-21 01:52N 45°46' W 004°06'0 0.4
2017-Sep-21 01:28N 45°45' W 004°05'0 0.3
2017-Sep-21 01:00N 45°45' W 004°05'0 0.3
2017-Sep-21 00:00N 45°45' W 004°05'0 0.3
2017-Sep-20 23:30N 45°45' W 004°05'0 0.2
2017-Sep-20 22:20N 45°45' W 004°04'0 0.4
2017-Sep-20 21:06N 45°45' W 004°05'0 0.6
2017-Sep-20 21:00N 45°45' W 004°05'0 0.5
2017-Sep-20 20:30N 45°45' W 004°05'0 0.6
2017-Sep-20 19:57N 45°45' W 004°06'1 0.7
2017-Sep-20 18:54N 45°44' W 004°07'5 0.8
2017-Sep-20 12:18N 45°50' W 004°07'137 3.1
2017-Sep-18 16:30N 43°45' W 002°47'6 8.4
2017-Sep-18 15:51N 43°39' W 002°45'3 8.0
2017-Sep-18 15:30N 43°37' W 002°43'4 8.1
2017-Sep-18 14:59N 43°33' W 002°43'4 8.1
2017-Sep-18 14:30N 43°29' W 002°43'  
Track history (hours):
 
Tides and Currents Weather Stations Pressure Air Temp Water Temp Dewpoint Dewpoint Depression Visibility Wind Speed Wind Dir Waves Ship Positions

Canalechevarria

Last reported at 2017-Sep-21 06:20 UTC. Time now 2017-Sep-24 21:24 UTC.
Position N 45°52' W 004°06'.

Length 26 m.

Type: Fishing. MMSI: 224218930.

Date/timePositionNaut miles runAvg speedWind from/ knotsBaromVisibWave heightAir tempDewpointWater temp
2017-Sep-21 06:20N 45°52' W 004°06'2 5.6
2017-Sep-21 06:00N 45°50' W 004°05'3 5.3
2017-Sep-21 05:30N 45°48' W 004°06'1 0.6
2017-Sep-21 03:50N 45°46' W 004°06'0 0.6
2017-Sep-21 03:30N 45°46' W 004°06'0 0.6
2017-Sep-21 02:59N 45°46' W 004°06'0 0.4
2017-Sep-21 02:08N 45°46' W 004°06'0 0.4
2017-Sep-21 01:52N 45°46' W 004°06'0 0.4
2017-Sep-21 01:28N 45°45' W 004°05'0 0.3
2017-Sep-21 01:00N 45°45' W 004°05'0 0.3
2017-Sep-21 00:00N 45°45' W 004°05'0 0.3
2017-Sep-20 23:30N 45°45' W 004°05'0 0.2
2017-Sep-20 22:20N 45°45' W 004°04'0 0.4
2017-Sep-20 21:06N 45°45' W 004°05'0 0.6
2017-Sep-20 21:00N 45°45' W 004°05'0 0.5
2017-Sep-20 20:30N 45°45' W 004°05'0 0.6
2017-Sep-20 19:57N 45°45' W 004°06'1 0.7
2017-Sep-20 18:54N 45°44' W 004°07'5 0.8
2017-Sep-20 12:18N 45°50' W 004°07'137 3.1
2017-Sep-18 16:30N 43°45' W 002°47'6 8.4
2017-Sep-18 15:51N 43°39' W 002°45'3 8.0
2017-Sep-18 15:30N 43°37' W 002°43'4 8.1
2017-Sep-18 14:59N 43°33' W 002°43'4 8.1
2017-Sep-18 14:30N 43°29' W 002°43'  

Dump ship's entire track history